sensor_id;sensor_type;location;lat;lon;timestamp;pressure;altitude;pressure_sealevel;temperature;humidity
54146;BME280;65909;49.422;7.738;2023-02-01T00:01:21;77323.66;;;-145.25;94.47
54146;BME280;65909;49.422;7.738;2023-02-01T00:03:46;77321.66;;;-145.25;94.37
54146;BME280;65909;49.422;7.738;2023-02-01T00:06:12;77319.66;;;-145.25;94.05
54146;BME280;65909;49.422;7.738;2023-02-01T00:08:37;77295.59;;;-145.25;93.52
54146;BME280;65909;49.422;7.738;2023-02-01T00:11:05;77291.59;;;-145.25;93.00
54146;BME280;65909;49.422;7.738;2023-02-01T00:13:33;77295.59;;;-145.25;93.00
54146;BME280;65909;49.422;7.738;2023-02-01T00:16:03;77289.56;;;-145.25;93.00
54146;BME280;65909;49.422;7.738;2023-02-01T00:18:29;77275.53;;;-145.25;92.83
54146;BME280;65909;49.422;7.738;2023-02-01T00:20:54;77277.53;;;-145.25;93.07
54146;BME280;65909;49.422;7.738;2023-02-01T00:23:20;77281.56;;;-145.25;93.08
54146;BME280;65909;49.422;7.738;2023-02-01T00:25:45;77277.53;;;-145.25;93.30
54146;BME280;65909;49.422;7.738;2023-02-01T00:28:10;77277.53;;;-145.25;93.07
54146;BME280;65909;49.422;7.738;2023-02-01T00:30:38;77273.53;;;-145.25;93.08
54146;BME280;65909;49.422;7.738;2023-02-01T00:33:03;77265.50;;;-145.25;93.25
54146;BME280;65909;49.422;7.738;2023-02-01T00:35:28;77267.53;;;-145.25;93.41
54146;BME280;65909;49.422;7.738;2023-02-01T00:37:54;77275.53;;;-145.25;93.63
54146;BME280;65909;49.422;7.738;2023-02-01T00:40:19;77269.53;;;-145.25;93.55
54146;BME280;65909;49.422;7.738;2023-02-01T00:42:44;77283.56;;;-145.25;93.68
54146;BME280;65909;49.422;7.738;2023-02-01T00:45:10;77277.53;;;-145.25;93.34
54146;BME280;65909;49.422;7.738;2023-02-01T00:47:35;77269.53;;;-145.25;92.89
54146;BME280;65909;49.422;7.738;2023-02-01T00:50:01;77271.53;;;-145.25;92.73
54146;BME280;65909;49.422;7.738;2023-02-01T00:52:26;77269.53;;;-145.25;92.43
54146;BME280;65909;49.422;7.738;2023-02-01T00:54:51;77269.53;;;-145.25;92.74
54146;BME280;65909;49.422;7.738;2023-02-01T00:57:17;77277.53;;;-145.25;92.74
54146;BME280;65909;49.422;7.738;2023-02-01T00:59:43;77271.53;;;-145.25;92.61
54146;BME280;65909;49.422;7.738;2023-02-01T01:02:08;77269.53;;;-145.25;92.61
54146;BME280;65909;49.422;7.738;2023-02-01T01:04:35;77277.53;;;-145.25;92.96
54146;BME280;65909;49.422;7.738;2023-02-01T01:07:01;77271.53;;;-145.25;93.15
54146;BME280;65909;49.422;7.738;2023-02-01T01:09:26;77267.53;;;-145.25;93.22
54146;BME280;65909;49.422;7.738;2023-02-01T01:11:51;77277.53;;;-145.25;93.51
54146;BME280;65909;49.422;7.738;2023-02-01T01:14:17;77277.53;;;-145.25;93.71
54146;BME280;65909;49.422;7.738;2023-02-01T01:16:43;77271.53;;;-145.25;93.37
54146;BME280;65909;49.422;7.738;2023-02-01T01:19:08;77269.53;;;-145.25;93.55
54146;BME280;65909;49.422;7.738;2023-02-01T01:21:34;77271.53;;;-145.25;93.43
54146;BME280;65909;49.422;7.738;2023-02-01T01:23:59;77267.53;;;-145.25;93.55
54146;BME280;65909;49.422;7.738;2023-02-01T01:26:27;77269.53;;;-145.25;93.41
54146;BME280;65909;49.422;7.738;2023-02-01T01:28:55;77273.53;;;-145.25;93.19
54146;BME280;65909;49.422;7.738;2023-02-01T01:31:21;77275.53;;;-145.25;93.19
54146;BME280;65909;49.422;7.738;2023-02-01T01:33:52;77257.50;;;-145.25;92.82
54146;BME280;65909;49.422;7.738;2023-02-01T01:36:18;77259.50;;;-145.25;92.93
54146;BME280;65909;49.422;7.738;2023-02-01T01:38:43;77253.47;;;-145.25;92.69
54146;BME280;65909;49.422;7.738;2023-02-01T01:41:14;77263.50;;;-145.25;92.74
54146;BME280;65909;49.422;7.738;2023-02-01T01:44:01;77253.47;;;-145.25;92.62
54146;BME280;65909;49.422;7.738;2023-02-01T01:49:03;77245.47;;;-145.25;92.20
54146;BME280;65909;49.422;7.738;2023-02-01T01:51:31;77245.47;;;-145.25;92.74
54146;BME280;65909;49.422;7.738;2023-02-01T01:54:02;77243.47;;;-145.25;92.63
54146;BME280;65909;49.422;7.738;2023-02-01T01:56:29;77237.44;;;-145.25;92.22
54146;BME280;65909;49.422;7.738;2023-02-01T01:58:57;77243.47;;;-145.25;92.38
54146;BME280;65909;49.422;7.738;2023-02-01T02:01:23;77235.44;;;-145.25;92.46
54146;BME280;65909;49.422;7.738;2023-02-01T02:03:49;77223.41;;;-145.25;92.02
54146;BME280;65909;49.422;7.738;2023-02-01T02:08:54;77223.41;;;-145.25;92.07
54146;BME280;65909;49.422;7.738;2023-02-01T02:11:20;77219.41;;;-145.25;92.28
54146;BME280;65909;49.422;7.738;2023-02-01T02:13:48;77211.38;;;-145.25;92.27
54146;BME280;65909;49.422;7.738;2023-02-01T02:16:46;77215.38;;;-145.25;92.58
54146;BME280;65909;49.422;7.738;2023-02-01T02:22:40;77209.38;;;-145.25;92.47
54146;BME280;65909;49.422;7.738;2023-02-01T02:43:42;77249.47;;;-145.25;94.90
54146;BME280;65909;49.422;7.738;2023-02-01T02:46:37;77263.50;;;-145.25;95.27
54146;BME280;65909;49.422;7.738;2023-02-01T02:49:32;77259.50;;;-145.25;95.31
54146;BME280;65909;49.422;7.738;2023-02-01T02:52:02;77253.47;;;-145.25;95.67
54146;BME280;65909;49.422;7.738;2023-02-01T02:54:49;77251.47;;;-145.25;95.64
54146;BME280;65909;49.422;7.738;2023-02-01T02:57:30;77253.47;;;-145.25;95.84
54146;BME280;65909;49.422;7.738;2023-02-01T03:00:19;77241.44;;;-145.25;95.90
54146;BME280;65909;49.422;7.738;2023-02-01T03:03:04;77243.47;;;-145.25;95.95
54146;BME280;65909;49.422;7.738;2023-02-01T03:05:49;77239.44;;;-145.25;95.89
54146;BME280;65909;49.422;7.738;2023-02-01T03:08:28;77235.44;;;-145.25;95.87
54146;BME280;65909;49.422;7.738;2023-02-01T03:11:07;77233.44;;;-145.25;95.85
54146;BME280;65909;49.422;7.738;2023-02-01T03:16:23;77227.41;;;-145.25;95.97
54146;BME280;65909;49.422;7.738;2023-02-01T03:18:57;77233.44;;;-145.25;95.86
54146;BME280;65909;49.422;7.738;2023-02-01T03:21:41;77221.41;;;-145.25;95.51
54146;BME280;65909;49.422;7.738;2023-02-01T03:24:16;77217.38;;;-145.25;94.84
54146;BME280;65909;49.422;7.738;2023-02-01T03:26:51;77209.38;;;-145.25;94.49
54146;BME280;65909;49.422;7.738;2023-02-01T03:29:30;77209.38;;;-145.25;94.87
54146;BME280;65909;49.422;7.738;2023-02-01T03:31:58;77211.38;;;-145.25;94.77
54146;BME280;65909;49.422;7.738;2023-02-01T03:34:24;77213.38;;;-145.25;94.92
54146;BME280;65909;49.422;7.738;2023-02-01T03:36:53;77209.38;;;-145.25;94.90
54146;BME280;65909;49.422;7.738;2023-02-01T03:39:36;77203.34;;;-145.25;94.88
54146;BME280;65909;49.422;7.738;2023-02-01T03:42:06;77207.38;;;-145.25;94.58
54146;BME280;65909;49.422;7.738;2023-02-01T03:44:39;77207.38;;;-145.25;94.22
54146;BME280;65909;49.422;7.738;2023-02-01T03:47:26;77207.38;;;-145.25;94.07
54146;BME280;65909;49.422;7.738;2023-02-01T03:50:05;77197.34;;;-145.25;93.99
54146;BME280;65909;49.422;7.738;2023-02-01T03:52:40;77193.31;;;-145.25;93.66
54146;BME280;65909;49.422;7.738;2023-02-01T03:55:08;77197.34;;;-145.25;93.48
54146;BME280;65909;49.422;7.738;2023-02-01T03:57:39;77185.31;;;-145.25;93.37
54146;BME280;65909;49.422;7.738;2023-02-01T04:00:09;77199.34;;;-145.25;93.50
54146;BME280;65909;49.422;7.738;2023-02-01T04:02:39;77183.31;;;-145.25;93.15
54146;BME280;65909;49.422;7.738;2023-02-01T04:05:05;77177.28;;;-145.25;93.07
54146;BME280;65909;49.422;7.738;2023-02-01T04:07:30;77171.28;;;-145.25;92.92
54146;BME280;65909;49.422;7.738;2023-02-01T04:09:55;77179.28;;;-145.25;92.92
54146;BME280;65909;49.422;7.738;2023-02-01T04:12:21;77175.28;;;-145.25;92.76
54146;BME280;65909;49.422;7.738;2023-02-01T04:14:46;77185.31;;;-145.25;92.58
54146;BME280;65909;49.422;7.738;2023-02-01T04:17:11;77183.31;;;-145.25;92.87
54146;BME280;65909;49.422;7.738;2023-02-01T04:19:37;77181.28;;;-145.25;92.63
54146;BME280;65909;49.422;7.738;2023-02-01T04:22:02;77169.25;;;-145.25;92.31
54146;BME280;65909;49.422;7.738;2023-02-01T04:24:27;77179.28;;;-145.25;92.19
54146;BME280;65909;49.422;7.738;2023-02-01T04:26:53;77173.28;;;-145.25;92.17
54146;BME280;65909;49.422;7.738;2023-02-01T04:29:18;77177.28;;;-145.25;92.33
54146;BME280;65909;49.422;7.738;2023-02-01T04:31:43;77171.28;;;-145.25;92.51
54146;BME280;65909;49.422;7.738;2023-02-01T04:34:09;77191.31;;;-145.25;92.79
54146;BME280;65909;49.422;7.738;2023-02-01T04:36:34;77181.28;;;-145.25;93.00
54146;BME280;65909;49.422;7.738;2023-02-01T04:38:59;77179.28;;;-145.25;93.16
54146;BME280;65909;49.422;7.738;2023-02-01T04:41:25;77177.28;;;-145.25;93.01
54146;BME280;65909;49.422;7.738;2023-02-01T04:43:50;77177.28;;;-145.25;93.00
54146;BME280;65909;49.422;7.738;2023-02-01T04:46:17;77183.31;;;-145.25;93.25
54146;BME280;65909;49.422;7.738;2023-02-01T04:48:43;77179.28;;;-145.25;93.61
54146;BME280;65909;49.422;7.738;2023-02-01T04:51:08;77175.28;;;-145.25;93.73
54146;BME280;65909;49.422;7.738;2023-02-01T04:53:34;77175.28;;;-145.25;93.85
54146;BME280;65909;49.422;7.738;2023-02-01T04:56:00;77165.25;;;-145.25;93.28
54146;BME280;65909;49.422;7.738;2023-02-01T04:58:25;77163.25;;;-145.25;93.22
54146;BME280;65909;49.422;7.738;2023-02-01T05:00:51;77159.22;;;-145.25;92.58
54146;BME280;65909;49.422;7.738;2023-02-01T05:03:17;77157.22;;;-145.25;92.14
54146;BME280;65909;49.422;7.738;2023-02-01T05:05:43;77163.25;;;-145.25;91.70
54146;BME280;65909;49.422;7.738;2023-02-01T05:08:08;77159.22;;;-145.25;91.65
54146;BME280;65909;49.422;7.738;2023-02-01T05:10:33;77159.22;;;-145.25;91.87
54146;BME280;65909;49.422;7.738;2023-02-01T05:12:59;77157.22;;;-145.25;91.40
54146;BME280;65909;49.422;7.738;2023-02-01T05:15:42;77147.22;;;-145.25;91.38
54146;BME280;65909;49.422;7.738;2023-02-01T05:18:08;77155.22;;;-145.25;91.51
54146;BME280;65909;49.422;7.738;2023-02-01T05:20:33;77155.22;;;-145.25;92.02
54146;BME280;65909;49.422;7.738;2023-02-01T05:22:59;77147.22;;;-145.25;91.96
54146;BME280;65909;49.422;7.738;2023-02-01T05:25:24;77153.22;;;-145.25;91.86
54146;BME280;65909;49.422;7.738;2023-02-01T05:27:49;77155.22;;;-145.25;91.37
54146;BME280;65909;49.422;7.738;2023-02-01T05:30:15;77159.22;;;-145.25;91.22
54146;BME280;65909;49.422;7.738;2023-02-01T05:32:40;77163.25;;;-145.25;91.14
54146;BME280;65909;49.422;7.738;2023-02-01T05:35:06;77153.22;;;-145.25;91.06
54146;BME280;65909;49.422;7.738;2023-02-01T05:37:31;77165.25;;;-145.25;91.33
54146;BME280;65909;49.422;7.738;2023-02-01T05:39:57;77155.22;;;-145.25;90.87
54146;BME280;65909;49.422;7.738;2023-02-01T05:42:22;77143.19;;;-145.25;90.10
54146;BME280;65909;49.422;7.738;2023-02-01T05:44:47;77143.19;;;-145.25;90.34
54146;BME280;65909;49.422;7.738;2023-02-01T05:47:13;77151.22;;;-145.25;89.92
54146;BME280;65909;49.422;7.738;2023-02-01T05:49:38;77153.22;;;-145.25;89.17
54146;BME280;65909;49.422;7.738;2023-02-01T05:52:04;77143.19;;;-145.25;89.27
54146;BME280;65909;49.422;7.738;2023-02-01T05:54:29;77139.19;;;-145.25;88.37
54146;BME280;65909;49.422;7.738;2023-02-01T05:56:55;77151.22;;;-145.25;88.87
54146;BME280;65909;49.422;7.738;2023-02-01T05:59:20;77159.22;;;-145.25;89.17
54146;BME280;65909;49.422;7.738;2023-02-01T06:01:45;77159.22;;;-145.25;89.23
54146;BME280;65909;49.422;7.738;2023-02-01T06:04:11;77167.25;;;-145.25;89.26
54146;BME280;65909;49.422;7.738;2023-02-01T06:06:36;77165.25;;;-145.25;89.53
54146;BME280;65909;49.422;7.738;2023-02-01T06:09:04;77163.25;;;-145.25;89.49
54146;BME280;65909;49.422;7.738;2023-02-01T06:11:30;77177.28;;;-145.25;89.70
54146;BME280;65909;49.422;7.738;2023-02-01T06:13:55;77159.22;;;-145.25;89.51
54146;BME280;65909;49.422;7.738;2023-02-01T06:16:21;77173.28;;;-145.25;89.77
54146;BME280;65909;49.422;7.738;2023-02-01T06:18:47;77193.31;;;-145.25;90.03
54146;BME280;65909;49.422;7.738;2023-02-01T06:21:12;77213.38;;;-145.25;90.44
54146;BME280;65909;49.422;7.738;2023-02-01T06:23:39;77205.34;;;-145.25;89.28
54146;BME280;65909;49.422;7.738;2023-02-01T06:26:06;77201.34;;;-145.25;89.40
54146;BME280;65909;49.422;7.738;2023-02-01T06:28:34;77215.38;;;-145.25;89.37
54146;BME280;65909;49.422;7.738;2023-02-01T06:31:05;77203.34;;;-145.25;88.30
54146;BME280;65909;49.422;7.738;2023-02-01T06:33:35;77213.38;;;-145.25;88.89
54146;BME280;65909;49.422;7.738;2023-02-01T06:36:02;77213.38;;;-145.25;88.74
54146;BME280;65909;49.422;7.738;2023-02-01T06:38:29;77221.41;;;-145.25;88.51
54146;BME280;65909;49.422;7.738;2023-02-01T06:40:55;77235.44;;;-145.25;88.58
54146;BME280;65909;49.422;7.738;2023-02-01T06:43:25;77229.41;;;-145.25;88.53
54146;BME280;65909;49.422;7.738;2023-02-01T06:45:52;77231.44;;;-145.25;88.61
54146;BME280;65909;49.422;7.738;2023-02-01T06:48:17;77235.44;;;-145.25;88.45
54146;BME280;65909;49.422;7.738;2023-02-01T06:50:43;77239.44;;;-145.25;88.64
54146;BME280;65909;49.422;7.738;2023-02-01T06:53:09;77237.44;;;-145.25;88.34
54146;BME280;65909;49.422;7.738;2023-02-01T06:55:34;77243.47;;;-145.25;88.32
54146;BME280;65909;49.422;7.738;2023-02-01T06:58:00;77235.44;;;-145.25;88.20
54146;BME280;65909;49.422;7.738;2023-02-01T07:00:27;77237.44;;;-145.25;88.33
54146;BME280;65909;49.422;7.738;2023-02-01T07:02:53;77225.41;;;-145.25;87.51
54146;BME280;65909;49.422;7.738;2023-02-01T07:05:19;77221.41;;;-145.25;87.64
54146;BME280;65909;49.422;7.738;2023-02-01T07:07:44;77211.38;;;-145.25;86.82
54146;BME280;65909;49.422;7.738;2023-02-01T07:10:10;77209.38;;;-145.25;86.47
54146;BME280;65909;49.422;7.738;2023-02-01T07:12:36;77213.38;;;-145.25;86.69
54146;BME280;65909;49.422;7.738;2023-02-01T07:15:02;77213.38;;;-145.25;86.58
54146;BME280;65909;49.422;7.738;2023-02-01T07:17:27;77181.28;;;-145.25;85.48
54146;BME280;65909;49.422;7.738;2023-02-01T07:19:54;77205.34;;;-145.25;85.53
54146;BME280;65909;49.422;7.738;2023-02-01T07:22:20;77195.34;;;-145.25;85.17
54146;BME280;65909;49.422;7.738;2023-02-01T07:24:45;77205.34;;;-145.25;85.35
54146;BME280;65909;49.422;7.738;2023-02-01T07:27:10;77207.38;;;-145.25;85.48
54146;BME280;65909;49.422;7.738;2023-02-01T07:29:36;77197.34;;;-145.25;84.60
54146;BME280;65909;49.422;7.738;2023-02-01T07:32:01;77203.34;;;-145.25;84.45
54146;BME280;65909;49.422;7.738;2023-02-01T07:34:27;77209.38;;;-145.25;84.59
54146;BME280;65909;49.422;7.738;2023-02-01T07:36:53;77211.38;;;-145.25;84.16
54146;BME280;65909;49.422;7.738;2023-02-01T07:39:18;77215.38;;;-145.25;84.21
54146;BME280;65909;49.422;7.738;2023-02-01T07:41:44;77227.41;;;-145.25;84.70
54146;BME280;65909;49.422;7.738;2023-02-01T07:44:10;77233.44;;;-145.25;84.67
54146;BME280;65909;49.422;7.738;2023-02-01T07:46:35;77227.41;;;-145.25;84.66
54146;BME280;65909;49.422;7.738;2023-02-01T07:49:01;77237.44;;;-145.25;84.21
54146;BME280;65909;49.422;7.738;2023-02-01T07:51:27;77239.44;;;-145.25;83.91
54146;BME280;65909;49.422;7.738;2023-02-01T07:53:52;77241.44;;;-145.25;84.26
54146;BME280;65909;49.422;7.738;2023-02-01T07:56:19;77237.44;;;-145.25;84.23
54146;BME280;65909;49.422;7.738;2023-02-01T07:58:50;77235.44;;;-145.25;84.65
54146;BME280;65909;49.422;7.738;2023-02-01T08:01:24;77239.44;;;-145.25;83.96
54146;BME280;65909;49.422;7.738;2023-02-01T08:03:54;77239.44;;;-145.25;83.76
54146;BME280;65909;49.422;7.738;2023-02-01T08:06:20;77239.44;;;-145.25;83.81
54146;BME280;65909;49.422;7.738;2023-02-01T08:08:47;77243.47;;;-145.25;83.84
54146;BME280;65909;49.422;7.738;2023-02-01T08:11:14;77237.44;;;-145.25;82.36
54146;BME280;65909;49.422;7.738;2023-02-01T08:13:40;77237.44;;;-145.25;81.60
54146;BME280;65909;49.422;7.738;2023-02-01T08:16:07;77243.47;;;-145.25;81.51
54146;BME280;65909;49.422;7.738;2023-02-01T08:18:33;77243.47;;;-145.25;81.23
54146;BME280;65909;49.422;7.738;2023-02-01T08:21:17;77243.47;;;-145.25;80.68
54146;BME280;65909;49.422;7.738;2023-02-01T08:23:43;77231.44;;;-145.25;79.76
54146;BME280;65909;49.422;7.738;2023-02-01T08:28:41;77245.47;;;-145.25;80.26
54146;BME280;65909;49.422;7.738;2023-02-01T08:31:09;77249.47;;;-145.25;80.26
54146;BME280;65909;49.422;7.738;2023-02-01T08:33:35;77245.47;;;-145.25;80.22
54146;BME280;65909;49.422;7.738;2023-02-01T08:36:03;77241.44;;;-145.25;79.93
54146;BME280;65909;49.422;7.738;2023-02-01T08:38:29;77235.44;;;-145.25;79.65
54146;BME280;65909;49.422;7.738;2023-02-01T08:40:54;77239.44;;;-145.25;79.59
54146;BME280;65909;49.422;7.738;2023-02-01T08:43:19;77241.44;;;-145.25;79.59
54146;BME280;65909;49.422;7.738;2023-02-01T08:45:45;77247.47;;;-145.25;80.17
54146;BME280;65909;49.422;7.738;2023-02-01T08:48:11;77243.47;;;-145.25;80.39
54146;BME280;65909;49.422;7.738;2023-02-01T08:50:36;77235.44;;;-145.25;79.13
54146;BME280;65909;49.422;7.738;2023-02-01T08:53:02;77215.38;;;-145.25;78.73
54146;BME280;65909;49.422;7.738;2023-02-01T08:55:27;77231.44;;;-145.25;78.66
54146;BME280;65909;49.422;7.738;2023-02-01T08:57:53;77225.41;;;-145.25;79.20
54146;BME280;65909;49.422;7.738;2023-02-01T09:00:18;77223.41;;;-145.25;78.75
54146;BME280;65909;49.422;7.738;2023-02-01T09:02:44;77215.38;;;-145.25;78.66
54146;BME280;65909;49.422;7.738;2023-02-01T09:05:09;77211.38;;;-145.25;78.10
54146;BME280;65909;49.422;7.738;2023-02-01T09:07:36;77211.38;;;-145.25;77.19
54146;BME280;65909;49.422;7.738;2023-02-01T09:10:02;77217.38;;;-145.25;77.32
54146;BME280;65909;49.422;7.738;2023-02-01T09:12:29;77207.38;;;-145.25;77.08
54146;BME280;65909;49.422;7.738;2023-02-01T09:14:56;77209.38;;;-145.25;77.35
54146;BME280;65909;49.422;7.738;2023-02-01T09:17:22;77205.34;;;-145.25;76.59
54146;BME280;65909;49.422;7.738;2023-02-01T09:19:47;77203.34;;;-145.25;75.77
54146;BME280;65909;49.422;7.738;2023-02-01T09:22:14;77211.38;;;-145.25;76.16
54146;BME280;65909;49.422;7.738;2023-02-01T09:24:41;77185.31;;;-145.25;73.81
54146;BME280;65909;49.422;7.738;2023-02-01T09:27:06;77179.28;;;-145.25;74.26
54146;BME280;65909;49.422;7.738;2023-02-01T09:29:31;77193.31;;;-145.25;74.33
54146;BME280;65909;49.422;7.738;2023-02-01T09:31:57;77191.31;;;-145.25;73.65
54146;BME280;65909;49.422;7.738;2023-02-01T09:34:22;77187.31;;;-145.25;73.02
54146;BME280;65909;49.422;7.738;2023-02-01T09:36:48;77195.34;;;-145.25;73.94
54146;BME280;65909;49.422;7.738;2023-02-01T09:39:13;77203.34;;;-145.25;73.76
54146;BME280;65909;49.422;7.738;2023-02-01T09:47:25;77181.28;;;-145.25;69.90
54146;BME280;65909;49.422;7.738;2023-02-01T09:50:05;77189.31;;;-145.25;70.08
54146;BME280;65909;49.422;7.738;2023-02-01T09:52:41;77195.34;;;-145.25;70.27
54146;BME280;65909;49.422;7.738;2023-02-01T09:55:16;77183.31;;;-145.25;69.86
54146;BME280;65909;49.422;7.738;2023-02-01T09:57:50;77185.31;;;-145.25;70.57
54146;BME280;65909;49.422;7.738;2023-02-01T10:00:31;77173.28;;;-145.25;70.24
54146;BME280;65909;49.422;7.738;2023-02-01T10:02:59;77171.28;;;-145.25;69.94
54146;BME280;65909;49.422;7.738;2023-02-01T10:05:54;77179.28;;;-145.25;69.92
54146;BME280;65909;49.422;7.738;2023-02-01T10:11:02;77169.25;;;-145.25;69.04
54146;BME280;65909;49.422;7.738;2023-02-01T10:21:45;77147.22;;;-145.25;68.74
54146;BME280;65909;49.422;7.738;2023-02-01T10:27:36;77139.19;;;-145.25;68.05
54146;BME280;65909;49.422;7.738;2023-02-01T10:30:30;77135.19;;;-145.25;67.79
54146;BME280;65909;49.422;7.738;2023-02-01T10:35:45;77115.13;;;-145.25;67.54
54146;BME280;65909;49.422;7.738;2023-02-01T10:38:24;77105.09;;;-145.25;67.55
54146;BME280;65909;49.422;7.738;2023-02-01T10:40:52;77119.13;;;-145.25;67.24
54146;BME280;65909;49.422;7.738;2023-02-01T10:43:18;77119.13;;;-145.25;67.15
54146;BME280;65909;49.422;7.738;2023-02-01T10:45:43;77117.13;;;-145.25;67.42
54146;BME280;65909;49.422;7.738;2023-02-01T10:48:09;77119.13;;;-145.25;67.35
54146;BME280;65909;49.422;7.738;2023-02-01T10:50:49;77109.09;;;-145.25;66.96
54146;BME280;65909;49.422;7.738;2023-02-01T10:53:34;77107.09;;;-145.25;66.60
54146;BME280;65909;49.422;7.738;2023-02-01T10:56:10;77103.09;;;-145.25;66.04
54146;BME280;65909;49.422;7.738;2023-02-01T10:58:42;77103.09;;;-145.25;66.77
54146;BME280;65909;49.422;7.738;2023-02-01T11:01:09;77109.09;;;-145.25;66.71
54146;BME280;65909;49.422;7.738;2023-02-01T11:03:42;77091.06;;;-145.25;65.98
54146;BME280;65909;49.422;7.738;2023-02-01T11:06:33;77093.06;;;-145.25;66.62
54146;BME280;65909;49.422;7.738;2023-02-01T11:09:19;77091.06;;;-145.25;66.51
54146;BME280;65909;49.422;7.738;2023-02-01T11:14:16;77083.03;;;-145.25;66.87
54146;BME280;65909;49.422;7.738;2023-02-01T11:16:48;77091.06;;;-145.25;67.98
54146;BME280;65909;49.422;7.738;2023-02-01T11:19:15;77091.06;;;-145.25;67.51
54146;BME280;65909;49.422;7.738;2023-02-01T11:21:42;77071.00;;;-145.25;66.42
54146;BME280;65909;49.422;7.738;2023-02-01T11:26:50;77069.00;;;-145.25;66.42
54146;BME280;65909;49.422;7.738;2023-02-01T11:29:19;77060.97;;;-145.25;67.36
54146;BME280;65909;49.422;7.738;2023-02-01T11:31:49;77060.97;;;-145.25;67.24
54146;BME280;65909;49.422;7.738;2023-02-01T11:34:21;77065.00;;;-145.25;67.45
54146;BME280;65909;49.422;7.738;2023-02-01T11:36:49;77058.97;;;-145.25;67.11
54146;BME280;65909;49.422;7.738;2023-02-01T11:42:00;77058.97;;;-145.25;66.86
54146;BME280;65909;49.422;7.738;2023-02-01T11:49:57;77054.97;;;-145.25;66.95
54146;BME280;65909;49.422;7.738;2023-02-01T11:52:40;77056.97;;;-145.25;66.39
54146;BME280;65909;49.422;7.738;2023-02-01T12:00:59;77028.91;;;-145.25;65.17
54146;BME280;65909;49.422;7.738;2023-02-01T12:03:49;77028.91;;;-145.25;65.26
54146;BME280;65909;49.422;7.738;2023-02-01T12:06:42;77014.88;;;-145.25;64.80
54146;BME280;65909;49.422;7.738;2023-02-01T12:12:12;77034.91;;;-145.25;66.25
54146;BME280;65909;49.422;7.738;2023-02-01T12:14:49;77014.88;;;-145.25;65.55
54146;BME280;65909;49.422;7.738;2023-02-01T12:20:13;77010.84;;;-145.25;65.83
54146;BME280;65909;49.422;7.738;2023-02-01T12:23:07;77004.84;;;-145.25;65.08
54146;BME280;65909;49.422;7.738;2023-02-01T12:36:46;77006.84;;;-145.25;64.63
54146;BME280;65909;49.422;7.738;2023-02-01T12:39:31;76986.78;;;-145.25;64.15
54146;BME280;65909;49.422;7.738;2023-02-01T12:42:24;76982.78;;;-145.25;64.19
54146;BME280;65909;49.422;7.738;2023-02-01T12:44:59;76974.75;;;-145.25;63.98
54146;BME280;65909;49.422;7.738;2023-02-01T12:47:57;76978.78;;;-145.25;63.47
54146;BME280;65909;49.422;7.738;2023-02-01T12:50:46;76998.81;;;-145.25;65.26
54146;BME280;65909;49.422;7.738;2023-02-01T12:53:27;76986.78;;;-145.25;65.28
54146;BME280;65909;49.422;7.738;2023-02-01T12:56:01;76982.78;;;-145.25;65.16
54146;BME280;65909;49.422;7.738;2023-02-01T12:58:51;76976.75;;;-145.25;64.72
54146;BME280;65909;49.422;7.738;2023-02-01T13:01:35;76974.75;;;-145.25;64.91
54146;BME280;65909;49.422;7.738;2023-02-01T13:04:08;76962.72;;;-145.25;63.89
54146;BME280;65909;49.422;7.738;2023-02-01T13:06:52;76956.72;;;-145.25;63.48
54146;BME280;65909;49.422;7.738;2023-02-01T13:09:26;76964.72;;;-145.25;63.51
54146;BME280;65909;49.422;7.738;2023-02-01T13:11:55;76954.72;;;-145.25;63.26
54146;BME280;65909;49.422;7.738;2023-02-01T13:14:37;76970.75;;;-145.25;64.18
54146;BME280;65909;49.422;7.738;2023-02-01T13:17:15;76962.72;;;-145.25;63.87
54146;BME280;65909;49.422;7.738;2023-02-01T13:19:49;76956.72;;;-145.25;63.74
54146;BME280;65909;49.422;7.738;2023-02-01T13:22:21;76944.69;;;-145.25;63.32
54146;BME280;65909;49.422;7.738;2023-02-01T13:24:54;76940.69;;;-145.25;62.76
54146;BME280;65909;49.422;7.738;2023-02-01T13:27:21;76944.69;;;-145.25;63.00
54146;BME280;65909;49.422;7.738;2023-02-01T13:29:58;76952.72;;;-145.25;63.45
54146;BME280;65909;49.422;7.738;2023-02-01T13:43:39;76928.66;;;-145.25;62.73
54146;BME280;65909;49.422;7.738;2023-02-01T13:46:09;76914.59;;;-145.25;63.19
54146;BME280;65909;49.422;7.738;2023-02-01T13:48:53;76922.63;;;-145.25;63.50
54146;BME280;65909;49.422;7.738;2023-02-01T13:51:36;76916.63;;;-145.25;63.73
54146;BME280;65909;49.422;7.738;2023-02-01T13:54:04;76900.56;;;-145.25;63.37
54146;BME280;65909;49.422;7.738;2023-02-01T13:56:39;76890.53;;;-145.25;63.31
54146;BME280;65909;49.422;7.738;2023-02-01T14:05:11;76868.50;;;-145.25;61.80
54146;BME280;65909;49.422;7.738;2023-02-01T14:13:21;76830.41;;;-145.25;61.93
54146;BME280;65909;49.422;7.738;2023-02-01T14:23:47;76816.38;;;-145.25;60.87
54146;BME280;65909;49.422;7.738;2023-02-01T14:26:27;76818.38;;;-145.25;60.74
54146;BME280;65909;49.422;7.738;2023-02-01T14:29:19;76814.34;;;-145.25;61.48
54146;BME280;65909;49.422;7.738;2023-02-01T14:32:18;76806.34;;;-145.25;61.02
54146;BME280;65909;49.422;7.738;2023-02-01T14:42:30;76696.06;;;-145.25;57.69
54146;BME280;65909;49.422;7.738;2023-02-01T14:47:43;76668.00;;;-145.25;57.70
54146;BME280;65909;49.422;7.738;2023-02-01T14:52:51;76698.06;;;-145.25;58.06
54146;BME280;65909;49.422;7.738;2023-02-01T14:57:53;76663.97;;;-145.25;57.49
54146;BME280;65909;49.422;7.738;2023-02-01T15:00:27;76676.00;;;-145.25;57.67
54146;BME280;65909;49.422;7.738;2023-02-01T15:02:56;76684.03;;;-145.25;58.45
54146;BME280;65909;49.422;7.738;2023-02-01T15:05:37;76698.06;;;-145.25;58.71
54146;BME280;65909;49.422;7.738;2023-02-01T15:08:22;76708.09;;;-145.25;58.93
54146;BME280;65909;49.422;7.738;2023-02-01T15:10:50;76742.19;;;-145.25;59.57
54146;BME280;65909;49.422;7.738;2023-02-01T15:13:25;76724.13;;;-145.25;59.83